Time;durP1;ratioP1;P1;durP2;ratioP2;P2;SDS_P1;SDS_P2;PMS_P1;PMS_P2;Temp;Humidity;BMP_temperature;BMP_pressure;BME280_temperature;BME280_humidity;BME280_pressure;Samples;Min_cycle;Max_cycle;Signal;HPM_P1;HPM_P2
2023/08/10 00:00:33;;;;;;;4.75;1.52;;;;;;;;;;6042194;29;20298;-77
2023/08/10 00:03:37;;;;;;;2.70;1.70;;;;;;;;;;6045053;29;20472;-79
2023/08/10 00:06:41;;;;;;;5.85;1.88;;;;;;;;;;6045610;29;20250;-78
2023/08/10 00:09:45;;;;;;;2.85;1.55;;;;;;;;;;6047475;29;20302;-79
2023/08/10 00:12:50;;;;;;;6.68;1.88;;;;;;;;;;6065190;29;20297;-78
2023/08/10 00:15:55;;;;;;;6.72;1.60;;;;;;;;;;6067909;29;20417;-78
2023/08/10 00:18:59;;;;;;;2.55;1.88;;;;;;;;;;6069265;29;20300;-79
2023/08/10 00:22:03;;;;;;;4.90;1.88;;;;;;;;;;6069430;29;20293;-77
2023/08/10 00:25:07;;;;;;;3.38;1.75;;;;;;;;;;6069424;29;20313;-78
2023/08/10 00:28:11;;;;;;;4.32;1.77;;;;;;;;;;6068646;29;20293;-77
2023/08/10 00:31:16;;;;;;;2.50;1.67;;;;;;;;;;6067769;29;20341;-78
2023/08/10 00:34:21;;;;;;;3.60;1.58;;;;;;;;;;6058242;29;20458;-78
2023/08/10 00:37:24;;;;;;;2.60;1.60;;;;;;;;;;6049596;29;20295;-77
2023/08/10 00:40:28;;;;;;;3.90;1.70;;;;;;;;;;6048055;29;20301;-78
2023/08/10 00:43:33;;;;;;;2.17;1.70;;;;;;;;;;6047903;29;20298;-78
2023/08/10 00:46:38;;;;;;;5.72;1.50;;;;;;;;;;6048567;29;20305;-78
2023/08/10 00:49:42;;;;;;;1.77;1.63;;;;;;;;;;6047530;29;20309;-78
2023/08/10 00:52:48;;;;;;;6.80;1.48;;;;;;;;;;6049360;29;20305;-78
2023/08/10 00:55:53;;;;;;;1.83;1.17;;;;;;;;;;6048405;29;20309;-78
2023/08/10 00:58:57;;;;;;;2.25;1.75;;;;;;;;;;6048578;29;20293;-78
2023/08/10 01:02:03;;;;;;;2.10;1.42;;;;;;;;;;6048229;29;20474;-78
2023/08/10 01:05:10;;;;;;;1.95;1.50;;;;;;;;;;6048592;29;20310;-77
2023/08/10 01:08:20;;;;;;;5.03;1.50;;;;;;;;;;6048365;29;20303;-78
2023/08/10 01:11:30;;;;;;;2.78;1.65;;;;;;;;;;6057598;29;20352;-78
2023/08/10 01:14:39;;;;;;;6.35;1.70;;;;;;;;;;6071625;29;20305;-78
2023/08/10 01:17:50;;;;;;;2.42;1.30;;;;;;;;;;6070124;29;20377;-77
2023/08/10 01:20:55;;;;;;;1.70;1.50;;;;;;;;;;6071402;29;20606;-77
2023/08/10 01:24:04;;;;;;;3.38;1.42;;;;;;;;;;6070563;29;20305;-78
2023/08/10 01:27:11;;;;;;;2.35;1.67;;;;;;;;;;6054676;29;20313;-78
2023/08/10 01:30:15;;;;;;;3.55;1.50;;;;;;;;;;6071202;29;20566;-78
2023/08/10 01:33:19;;;;;;;5.13;2.00;;;;;;;;;;6065523;29;20293;-78
2023/08/10 01:36:23;;;;;;;4.38;1.73;;;;;;;;;;6047289;29;20298;-77
2023/08/10 01:39:27;;;;;;;2.83;1.70;;;;;;;;;;6047706;29;20313;-77
2023/08/10 01:42:32;;;;;;;2.38;1.30;;;;;;;;;;6030798;29;20353;-77
2023/08/10 01:45:36;;;;;;;1.55;1.45;;;;;;;;;;6045989;29;20559;-77
2023/08/10 01:48:42;;;;;;;3.63;1.70;;;;;;;;;;6047829;29;20301;-77
2023/08/10 01:51:48;;;;;;;6.18;1.80;;;;;;;;;;6047535;29;20286;-77
2023/08/10 01:54:52;;;;;;;3.15;1.50;;;;;;;;;;6046230;29;20294;-77
2023/08/10 01:57:59;;;;;;;2.92;1.90;;;;;;;;;;6047926;29;20582;-77
2023/08/10 02:01:03;;;;;;;3.25;1.40;;;;;;;;;;6044694;29;20298;-77
2023/08/10 02:04:07;;;;;;;4.15;1.70;;;;;;;;;;6038139;29;20302;-77
2023/08/10 02:07:11;;;;;;;2.33;1.50;;;;;;;;;;6023747;29;20290;-77
2023/08/10 02:10:15;;;;;;;3.72;1.65;;;;;;;;;;6038524;29;20317;-77
2023/08/10 02:13:20;;;;;;;4.38;1.73;;;;;;;;;;6025769;29;20289;-78
2023/08/10 02:16:24;;;;;;;2.40;1.63;;;;;;;;;;6024273;29;20303;-77
2023/08/10 02:19:28;;;;;;;1.98;1.52;;;;;;;;;;6038280;29;20290;-78
2023/08/10 02:22:32;;;;;;;2.08;1.60;;;;;;;;;;6024417;29;20306;-77
2023/08/10 02:25:36;;;;;;;3.53;1.70;;;;;;;;;;6037908;29;20305;-78
2023/08/10 02:28:41;;;;;;;4.15;1.63;;;;;;;;;;6038272;29;20362;-77
2023/08/10 02:31:46;;;;;;;1.55;1.48;;;;;;;;;;6038979;29;20291;-78
2023/08/10 02:34:49;;;;;;;4.57;1.67;;;;;;;;;;6053181;29;20581;-78
2023/08/10 02:37:53;;;;;;;4.28;1.50;;;;;;;;;;6047842;29;20309;-77
2023/08/10 02:40:57;;;;;;;1.83;1.65;;;;;;;;;;6060835;29;20305;-78
2023/08/10 02:44:02;;;;;;;3.08;1.35;;;;;;;;;;6046613;29;20309;-77
2023/08/10 02:47:06;;;;;;;2.97;1.63;;;;;;;;;;6047105;29;20323;-77
2023/08/10 02:50:11;;;;;;;2.08;1.65;;;;;;;;;;6046331;29;20471;-77
2023/08/10 02:53:15;;;;;;;4.10;1.70;;;;;;;;;;6049171;29;20313;-77
2023/08/10 02:56:19;;;;;;;2.97;1.58;;;;;;;;;;6046671;29;20298;-78
2023/08/10 02:59:25;;;;;;;2.38;1.30;;;;;;;;;;6046296;29;20293;-77
2023/08/10 03:02:29;;;;;;;2.85;1.80;;;;;;;;;;6043511;29;20293;-77
2023/08/10 03:05:36;;;;;;;1.98;1.70;;;;;;;;;;6055199;29;20301;-77
2023/08/10 03:08:40;;;;;;;2.70;1.50;;;;;;;;;;6059996;29;20325;-78
2023/08/10 03:11:44;;;;;;;1.70;1.60;;;;;;;;;;6037656;29;20607;-78
2023/08/10 03:14:50;;;;;;;1.75;1.65;;;;;;;;;;6014258;29;20323;-78
2023/08/10 03:17:54;;;;;;;1.95;1.50;;;;;;;;;;6015040;29;20306;-79
2023/08/10 03:20:58;;;;;;;3.28;1.77;;;;;;;;;;6041994;29;20627;-79
2023/08/10 03:24:02;;;;;;;3.40;1.50;;;;;;;;;;6059867;29;20467;-77
2023/08/10 03:27:06;;;;;;;4.60;1.60;;;;;;;;;;6060544;29;20297;-79
2023/08/10 03:30:12;;;;;;;2.30;1.48;;;;;;;;;;6045571;29;20305;-78
2023/08/10 03:33:16;;;;;;;3.72;1.80;;;;;;;;;;6041858;29;20303;-78
2023/08/10 03:36:21;;;;;;;1.63;1.52;;;;;;;;;;6030120;29;20299;-78
2023/08/10 03:39:25;;;;;;;2.67;1.83;;;;;;;;;;6059638;29;20306;-79
2023/08/10 03:42:29;;;;;;;2.03;1.90;;;;;;;;;;6044901;29;20309;-77
2023/08/10 03:45:34;;;;;;;3.53;1.90;;;;;;;;;;6059994;29;20297;-78
2023/08/10 03:48:38;;;;;;;4.43;1.77;;;;;;;;;;6045643;29;20298;-78
2023/08/10 03:51:41;;;;;;;2.97;1.70;;;;;;;;;;6045728;29;20438;-78
2023/08/10 03:54:47;;;;;;;1.80;1.70;;;;;;;;;;6059877;29;20309;-77
2023/08/10 03:57:51;;;;;;;1.83;1.70;;;;;;;;;;6059161;29;20313;-77
2023/08/10 04:00:56;;;;;;;5.68;1.70;;;;;;;;;;6059945;29;20298;-77
2023/08/10 04:04:01;;;;;;;2.05;1.80;;;;;;;;;;6065116;29;20301;-77
2023/08/10 04:07:08;;;;;;;3.22;1.52;;;;;;;;;;6068329;29;20320;-77
2023/08/10 04:10:12;;;;;;;2.35;1.80;;;;;;;;;;6065196;29;20293;-78
2023/08/10 04:13:16;;;;;;;3.75;1.90;;;;;;;;;;6048918;29;20297;-78
2023/08/10 04:16:21;;;;;;;1.65;1.50;;;;;;;;;;6050349;29;20618;-78
2023/08/10 04:19:25;;;;;;;3.47;1.63;;;;;;;;;;6049784;29;20317;-79
2023/08/10 04:22:30;;;;;;;6.72;2.00;;;;;;;;;;6049680;29;20289;-79
2023/08/10 04:25:33;;;;;;;2.03;1.52;;;;;;;;;;6050241;29;20306;-78
2023/08/10 04:28:37;;;;;;;1.50;1.35;;;;;;;;;;6049634;29;20297;-77
2023/08/10 04:31:42;;;;;;;3.25;1.52;;;;;;;;;;6050071;29;20309;-77
2023/08/10 04:34:46;;;;;;;3.22;1.80;;;;;;;;;;6064493;29;20301;-76
2023/08/10 04:37:53;;;;;;;3.60;1.77;;;;;;;;;;6072742;29;20533;-77
2023/08/10 04:40:57;;;;;;;1.65;1.40;;;;;;;;;;6073608;29;20309;-77
2023/08/10 04:44:01;;;;;;;1.98;1.88;;;;;;;;;;6074169;29;20380;-77
2023/08/10 04:47:08;;;;;;;2.13;1.63;;;;;;;;;;6073029;29;20301;-77
2023/08/10 04:50:12;;;;;;;6.68;1.75;;;;;;;;;;6072141;29;20298;-77
2023/08/10 04:53:16;;;;;;;2.03;1.58;;;;;;;;;;6073844;29;20297;-76
2023/08/10 04:56:20;;;;;;;3.40;1.63;;;;;;;;;;6072590;29;20321;-77
2023/08/10 04:59:24;;;;;;;4.55;1.90;;;;;;;;;;6072038;29;20491;-78
2023/08/10 05:02:29;;;;;;;2.97;1.90;;;;;;;;;;6070282;29;20608;-77
2023/08/10 05:05:33;;;;;;;3.28;1.92;;;;;;;;;;6070234;29;20499;-77
2023/08/10 05:08:37;;;;;;;3.15;2.00;;;;;;;;;;6071792;29;20516;-78
2023/08/10 05:11:41;;;;;;;4.30;1.55;;;;;;;;;;6054984;29;20313;-79
2023/08/10 05:14:44;;;;;;;2.42;1.50;;;;;;;;;;6052721;29;20302;-81
2023/08/10 05:17:50;;;;;;;3.15;1.70;;;;;;;;;;6049153;29;20337;-79
2023/08/10 05:20:54;;;;;;;1.65;1.55;;;;;;;;;;6047227;29;20798;-78
2023/08/10 05:23:58;;;;;;;1.98;1.70;;;;;;;;;;6048479;29;20610;-78
2023/08/10 05:27:02;;;;;;;2.78;1.80;;;;;;;;;;6047508;29;20474;-77
2023/08/10 05:30:11;;;;;;;3.55;1.27;;;;;;;;;;6048343;29;20302;-78
2023/08/10 05:33:16;;;;;;;1.48;1.33;;;;;;;;;;6051219;29;20598;-77
2023/08/10 05:36:20;;;;;;;2.90;1.70;;;;;;;;;;6071698;29;20309;-77
2023/08/10 05:39:24;;;;;;;3.03;1.60;;;;;;;;;;6069455;29;20297;-77
2023/08/10 05:42:28;;;;;;;2.78;1.85;;;;;;;;;;6071143;29;20316;-77
2023/08/10 05:45:32;;;;;;;4.60;1.60;;;;;;;;;;6070889;29;20292;-77
2023/08/10 05:48:37;;;;;;;4.28;1.58;;;;;;;;;;6069796;29;20297;-77
2023/08/10 05:51:41;;;;;;;1.52;1.40;;;;;;;;;;6071020;29;20423;-77
2023/08/10 05:54:45;;;;;;;1.33;1.27;;;;;;;;;;6070908;29;20301;-77
2023/08/10 05:57:49;;;;;;;1.88;1.50;;;;;;;;;;6069394;29;20324;-77
2023/08/10 06:00:53;;;;;;;2.80;1.60;;;;;;;;;;6071268;29;20305;-77
2023/08/10 06:03:59;;;;;;;1.70;1.33;;;;;;;;;;6070336;29;20585;-78
2023/08/10 06:07:03;;;;;;;1.55;1.42;;;;;;;;;;6071337;29;20316;-78
2023/08/10 06:10:08;;;;;;;2.05;1.42;;;;;;;;;;6064927;29;20302;-77
2023/08/10 06:13:11;;;;;;;1.90;1.70;;;;;;;;;;6046525;29;20290;-77
2023/08/10 06:16:16;;;;;;;1.23;1.23;;;;;;;;;;6047554;29;20596;-77
2023/08/10 06:19:21;;;;;;;3.65;1.33;;;;;;;;;;6047250;29;20293;-78
2023/08/10 06:22:25;;;;;;;1.40;1.30;;;;;;;;;;6047362;29;20306;-79
2023/08/10 06:25:30;;;;;;;1.00;1.00;;;;;;;;;;6047192;29;20301;-78
2023/08/10 06:28:35;;;;;;;2.80;1.40;;;;;;;;;;6046990;29;20310;-78
2023/08/10 06:31:38;;;;;;;1.70;1.60;;;;;;;;;;6047272;29;20305;-78
2023/08/10 06:34:44;;;;;;;3.75;1.50;;;;;;;;;;6060906;29;20301;-78
2023/08/10 06:37:50;;;;;;;1.67;1.58;;;;;;;;;;6068302;29;20464;-78
2023/08/10 06:40:55;;;;;;;1.80;1.50;;;;;;;;;;6071011;29;20481;-78
2023/08/10 06:43:58;;;;;;;1.42;1.33;;;;;;;;;;6070072;29;20308;-79
2023/08/10 06:47:03;;;;;;;1.67;1.58;;;;;;;;;;6068658;29;20483;-78
2023/08/10 06:50:09;;;;;;;2.63;1.73;;;;;;;;;;6069659;29;20300;-78
2023/08/10 06:53:13;;;;;;;2.85;1.10;;;;;;;;;;6069587;29;20296;-78
2023/08/10 06:56:17;;;;;;;1.23;1.13;;;;;;;;;;6069057;29;20304;-78
2023/08/10 06:59:21;;;;;;;1.75;1.10;;;;;;;;;;6069540;29;20307;-78
2023/08/10 07:02:25;;;;;;;2.00;1.27;;;;;;;;;;6069369;29;20427;-78
2023/08/10 07:05:31;;;;;;;1.30;1.20;;;;;;;;;;6069677;29;20454;-78
2023/08/10 07:08:35;;;;;;;1.00;1.00;;;;;;;;;;6069517;29;20308;-77
2023/08/10 07:11:38;;;;;;;1.85;1.20;;;;;;;;;;6054392;29;20305;-79
2023/08/10 07:14:42;;;;;;;1.00;1.00;;;;;;;;;;6048544;29;20301;-78
2023/08/10 07:17:46;;;;;;;1.30;1.20;;;;;;;;;;6046243;29;20297;-78
2023/08/10 07:20:52;;;;;;;1.10;1.05;;;;;;;;;;6047121;29;20305;-79
2023/08/10 07:23:56;;;;;;;0.98;0.98;;;;;;;;;;6046213;29;20298;-77
2023/08/10 07:27:00;;;;;;;1.10;1.10;;;;;;;;;;6046628;29;20317;-78
2023/08/10 07:30:04;;;;;;;2.65;1.10;;;;;;;;;;6046431;29;20289;-78
2023/08/10 07:33:09;;;;;;;3.03;1.30;;;;;;;;;;6048669;29;20309;-78
2023/08/10 07:36:14;;;;;;;1.60;1.20;;;;;;;;;;6069477;29;20588;-77
2023/08/10 07:39:18;;;;;;;2.42;1.15;;;;;;;;;;6068823;29;20310;-79
2023/08/10 07:42:22;;;;;;;1.00;1.00;;;;;;;;;;6067878;29;20304;-78
2023/08/10 07:45:25;;;;;;;1.65;1.10;;;;;;;;;;6069254;29;20297;-78
2023/08/10 07:48:29;;;;;;;1.10;1.10;;;;;;;;;;6067044;29;20305;-78
2023/08/10 07:51:36;;;;;;;1.17;1.13;;;;;;;;;;6068957;29;20253;-79
2023/08/10 07:54:40;;;;;;;2.08;0.98;;;;;;;;;;6069686;29;20366;-77
2023/08/10 07:57:44;;;;;;;1.10;1.10;;;;;;;;;;6068647;29;20360;-79
2023/08/10 08:00:47;;;;;;;1.15;1.13;;;;;;;;;;6070531;29;20249;-77
2023/08/10 08:03:51;;;;;;;1.35;1.00;;;;;;;;;;6068027;29;20293;-78
2023/08/10 08:06:56;;;;;;;0.90;0.90;;;;;;;;;;6069877;29;20301;-77
2023/08/10 08:10:01;;;;;;;1.17;0.70;;;;;;;;;;6065091;29;20293;-78
2023/08/10 08:13:06;;;;;;;0.82;0.82;;;;;;;;;;6046718;29;20301;-78
2023/08/10 08:16:11;;;;;;;0.70;0.70;;;;;;;;;;6046893;29;20299;-77
2023/08/10 08:19:15;;;;;;;0.80;0.80;;;;;;;;;;6045424;29;20302;-78
2023/08/10 08:22:20;;;;;;;1.02;0.90;;;;;;;;;;6046747;29;20298;-78
2023/08/10 08:25:24;;;;;;;0.82;0.82;;;;;;;;;;6046956;29;20301;-79
2023/08/10 08:28:28;;;;;;;1.10;1.00;;;;;;;;;;6046658;29;20368;-77
2023/08/10 08:31:32;;;;;;;0.90;0.90;;;;;;;;;;6045842;29;20467;-79
2023/08/10 08:34:38;;;;;;;0.93;0.90;;;;;;;;;;6060343;29;20293;-77
2023/08/10 08:37:44;;;;;;;0.80;0.80;;;;;;;;;;6068287;29;20561;-77
2023/08/10 08:40:49;;;;;;;1.42;0.90;;;;;;;;;;6069878;29;20301;-77
2023/08/10 08:43:53;;;;;;;2.00;0.90;;;;;;;;;;6068193;29;20651;-77
2023/08/10 08:46:58;;;;;;;0.90;0.70;;;;;;;;;;6070287;29;20305;-76
2023/08/10 08:50:03;;;;;;;1.00;1.00;;;;;;;;;;6069567;29;20313;-78
2023/08/10 08:53:09;;;;;;;1.13;1.13;;;;;;;;;;6069845;29;20302;-79
2023/08/10 08:56:12;;;;;;;1.00;1.00;;;;;;;;;;6074884;29;20317;-79
2023/08/10 08:59:17;;;;;;;1.63;1.00;;;;;;;;;;6075100;29;20305;-77
2023/08/10 09:02:21;;;;;;;1.00;1.00;;;;;;;;;;6073409;29;20308;-78
2023/08/10 09:05:29;;;;;;;1.02;0.90;;;;;;;;;;6074132;29;20401;-76
2023/08/10 09:08:38;;;;;;;1.05;0.90;;;;;;;;;;6072255;29;20297;-77
2023/08/10 09:11:42;;;;;;;1.38;1.20;;;;;;;;;;6073340;29;20313;-78
2023/08/10 09:15:02;;;;;;;1.17;1.17;;;;;;;;;;6063277;29;20300;-78
2023/08/10 09:18:06;;;;;;;1.50;1.50;;;;;;;;;;6070771;29;20322;-78
2023/08/10 09:21:15;;;;;;;1.63;1.50;;;;;;;;;;6073630;29;20297;-78
2023/08/10 09:24:21;;;;;;;2.47;1.77;;;;;;;;;;6072745;29;20635;-79
2023/08/10 09:27:26;;;;;;;7.15;1.67;;;;;;;;;;6073265;29;20301;-79
2023/08/10 09:30:34;;;;;;;1.52;1.42;;;;;;;;;;6075451;29;20455;-77
2023/08/10 09:33:38;;;;;;;1.50;1.40;;;;;;;;;;6051587;29;20306;-77
2023/08/10 09:36:53;;;;;;;1.92;1.30;;;;;;;;;;6053597;29;20246;-78
2023/08/10 09:40:00;;;;;;;1.05;1.02;;;;;;;;;;6051915;29;20404;-77
2023/08/10 09:43:09;;;;;;;0.98;0.90;;;;;;;;;;6053572;29;20309;-78
2023/08/10 09:46:17;;;;;;;0.82;0.80;;;;;;;;;;6050328;29;20298;-78
2023/08/10 09:49:21;;;;;;;1.02;0.88;;;;;;;;;;6049269;29;20299;-77
2023/08/10 09:52:26;;;;;;;0.77;0.77;;;;;;;;;;6049548;29;20321;-77
2023/08/10 09:55:32;;;;;;;0.90;0.90;;;;;;;;;;6048654;29;20313;-77
2023/08/10 09:58:36;;;;;;;0.70;0.70;;;;;;;;;;6047315;29;20313;-77
2023/08/10 10:01:40;;;;;;;0.85;0.77;;;;;;;;;;6048244;29;20306;-77
2023/08/10 10:04:44;;;;;;;2.15;1.08;;;;;;;;;;6047404;29;20314;-77
2023/08/10 10:07:49;;;;;;;0.90;0.90;;;;;;;;;;6047454;29;20329;-78
2023/08/10 10:10:57;;;;;;;1.00;1.00;;;;;;;;;;6059921;29;20305;-78
2023/08/10 10:14:02;;;;;;;1.23;1.23;;;;;;;;;;6070642;29;20297;-77
2023/08/10 10:17:06;;;;;;;1.35;1.35;;;;;;;;;;6071522;29;20312;-77
2023/08/10 10:20:11;;;;;;;1.42;1.30;;;;;;;;;;6070975;29;20488;-77
2023/08/10 10:23:16;;;;;;;1.70;1.23;;;;;;;;;;6071091;29;20307;-78
2023/08/10 10:26:22;;;;;;;1.55;1.48;;;;;;;;;;6070988;29;20312;-77
2023/08/10 10:29:36;;;;;;;1.55;1.50;;;;;;;;;;6071162;29;20305;-78
2023/08/10 10:32:44;;;;;;;2.60;1.55;;;;;;;;;;6071783;29;20297;-77
2023/08/10 10:36:07;;;;;;;1.42;1.35;;;;;;;;;;6047845;29;20322;-79
2023/08/10 10:39:23;;;;;;;1.45;1.45;;;;;;;;;;6046866;29;20333;-78
2023/08/10 10:42:28;;;;;;;1.65;1.60;;;;;;;;;;6046609;29;20317;-78
2023/08/10 10:45:36;;;;;;;1.33;1.23;;;;;;;;;;6046475;29;20269;-78
2023/08/10 10:48:40;;;;;;;1.55;1.42;;;;;;;;;;6045155;29;20302;-77
2023/08/10 10:51:54;;;;;;;1.52;1.42;;;;;;;;;;6030227;29;20274;-79
2023/08/10 10:55:00;;;;;;;4.32;1.83;;;;;;;;;;6046743;29;20505;-79
2023/08/10 10:58:07;;;;;;;1.40;1.40;;;;;;;;;;6046259;29;20293;-79
2023/08/10 11:01:11;;;;;;;1.20;1.20;;;;;;;;;;6046634;29;20301;-78
2023/08/10 11:04:15;;;;;;;1.50;1.50;;;;;;;;;;6046237;29;20613;-78
2023/08/10 11:07:19;;;;;;;1.60;1.50;;;;;;;;;;6046567;29;20309;-79
2023/08/10 11:10:23;;;;;;;1.70;1.70;;;;;;;;;;6054331;29;20577;-79
2023/08/10 11:13:29;;;;;;;1.50;1.50;;;;;;;;;;6069026;29;20293;-79
2023/08/10 11:16:36;;;;;;;1.92;1.67;;;;;;;;;;6068659;29;20301;-78
2023/08/10 11:19:40;;;;;;;1.42;1.40;;;;;;;;;;6068595;29;20305;-78
2023/08/10 11:22:44;;;;;;;1.50;1.50;;;;;;;;;;6069576;29;20305;-77
2023/08/10 11:25:50;;;;;;;1.30;1.30;;;;;;;;;;6069715;29;20296;-78
2023/08/10 11:28:55;;;;;;;1.20;1.20;;;;;;;;;;6068951;29;20310;-79
2023/08/10 11:31:59;;;;;;;1.02;1.02;;;;;;;;;;6069261;29;20602;-78
2023/08/10 11:35:03;;;;;;;2.22;1.40;;;;;;;;;;6051977;29;20289;-78
2023/08/10 11:38:07;;;;;;;1.20;0.90;;;;;;;;;;6045641;29;20289;-77
2023/08/10 11:41:11;;;;;;;2.10;1.30;;;;;;;;;;6046327;29;20602;-78
2023/08/10 11:44:28;;;;;;;1.17;1.15;;;;;;;;;;6045349;29;20306;-78
2023/08/10 11:47:40;;;;;;;1.30;1.20;;;;;;;;;;6045938;29;20326;-78
2023/08/10 11:50:47;;;;;;;1.20;1.10;;;;;;;;;;6046673;29;20309;-78
2023/08/10 11:53:52;;;;;;;1.20;1.20;;;;;;;;;;6045722;29;20301;-78
2023/08/10 11:56:56;;;;;;;2.92;1.80;;;;;;;;;;6048634;29;20305;-78
2023/08/10 12:00:17;;;;;;;1.63;1.52;;;;;;;;;;6044664;29;20504;-78
2023/08/10 12:03:24;;;;;;;1.90;1.80;;;;;;;;;;6045652;29;20297;-78
2023/08/10 12:06:40;;;;;;;2.53;2.47;;;;;;;;;;6044631;29;20302;-77
2023/08/10 12:09:47;;;;;;;1.80;1.80;;;;;;;;;;6047776;29;20462;-77
2023/08/10 12:12:58;;;;;;;3.40;2.20;;;;;;;;;;6068981;29;20302;-78
2023/08/10 12:16:04;;;;;;;2.05;2.05;;;;;;;;;;6068607;29;20320;-79
2023/08/10 12:19:08;;;;;;;2.45;2.25;;;;;;;;;;6068231;29;20302;-79
2023/08/10 12:22:11;;;;;;;2.40;2.30;;;;;;;;;;6068902;29;20526;-79
2023/08/10 12:25:15;;;;;;;2.08;2.00;;;;;;;;;;6066909;29;20297;-77
2023/08/10 12:28:20;;;;;;;6.07;2.10;;;;;;;;;;6068104;29;20289;-78
2023/08/10 12:31:26;;;;;;;2.47;2.28;;;;;;;;;;6073058;29;20306;-79
2023/08/10 12:34:30;;;;;;;1.88;1.75;;;;;;;;;;6059941;29;20289;-79
2023/08/10 12:37:34;;;;;;;1.70;1.60;;;;;;;;;;6048421;29;20311;-78
2023/08/10 12:40:38;;;;;;;2.33;1.70;;;;;;;;;;6049872;29;20305;-77
2023/08/10 12:43:42;;;;;;;1.95;1.85;;;;;;;;;;6049476;29;20309;-77
2023/08/10 12:46:47;;;;;;;1.95;1.88;;;;;;;;;;6050092;29;20305;-78
2023/08/10 12:49:52;;;;;;;1.83;1.73;;;;;;;;;;6049192;29;20305;-78
2023/08/10 12:52:56;;;;;;;1.73;1.63;;;;;;;;;;6047762;29;20429;-78
2023/08/10 12:56:02;;;;;;;4.43;2.00;;;;;;;;;;6049438;29;20309;-78
2023/08/10 12:59:06;;;;;;;3.15;2.65;;;;;;;;;;6048908;29;20315;-77
2023/08/10 13:02:12;;;;;;;4.05;2.30;;;;;;;;;;6048948;29;20621;-77
2023/08/10 13:05:30;;;;;;;2.40;1.90;;;;;;;;;;6048161;29;20309;-78
2023/08/10 13:08:36;;;;;;;3.67;1.92;;;;;;;;;;6049072;29;20305;-77
2023/08/10 13:11:39;;;;;;;2.20;2.00;;;;;;;;;;6066842;29;20309;-78
2023/08/10 13:14:43;;;;;;;2.50;1.92;;;;;;;;;;6072029;29;20306;-78
2023/08/10 13:17:48;;;;;;;1.70;1.65;;;;;;;;;;6071279;29;20550;-78
2023/08/10 13:20:52;;;;;;;2.20;1.98;;;;;;;;;;6072069;29;20305;-77
2023/08/10 13:23:56;;;;;;;2.75;1.90;;;;;;;;;;6055163;29;20292;-78
2023/08/10 13:27:00;;;;;;;1.95;1.80;;;;;;;;;;6072074;29;20300;-77
2023/08/10 13:30:05;;;;;;;2.28;2.17;;;;;;;;;;6071256;29;20301;-78
2023/08/10 13:33:10;;;;;;;1.75;1.65;;;;;;;;;;6068784;29;20313;-77
2023/08/10 13:36:15;;;;;;;1.95;1.80;;;;;;;;;;6048705;29;20317;-78
2023/08/10 13:39:18;;;;;;;2.00;1.90;;;;;;;;;;6046832;29;20309;-78
2023/08/10 13:42:22;;;;;;;2.17;2.08;;;;;;;;;;6047025;29;20314;-77
2023/08/10 13:45:26;;;;;;;1.83;1.70;;;;;;;;;;6048505;29;20301;-79
2023/08/10 13:48:33;;;;;;;3.28;1.80;;;;;;;;;;6047622;29;20294;-77
2023/08/10 13:51:37;;;;;;;1.90;1.80;;;;;;;;;;6049777;29;20273;-77
2023/08/10 13:54:41;;;;;;;2.22;2.00;;;;;;;;;;6048832;29;20298;-77
2023/08/10 13:57:44;;;;;;;1.70;1.70;;;;;;;;;;6048519;29;20313;-78
2023/08/10 14:00:48;;;;;;;2.65;1.77;;;;;;;;;;6048924;29;20254;-77
2023/08/10 14:03:54;;;;;;;1.55;1.55;;;;;;;;;;6048665;29;20297;-78
2023/08/10 14:06:58;;;;;;;2.85;1.90;;;;;;;;;;6049526;29;20299;-79
2023/08/10 14:10:02;;;;;;;1.75;1.65;;;;;;;;;;6048566;29;20301;-78
2023/08/10 14:13:06;;;;;;;2.20;2.10;;;;;;;;;;6048645;29;20574;-78
2023/08/10 14:16:10;;;;;;;1.88;1.70;;;;;;;;;;6049275;29;20294;-78
2023/08/10 14:19:15;;;;;;;2.88;1.65;;;;;;;;;;6049891;29;20297;-78
2023/08/10 14:22:19;;;;;;;1.90;1.80;;;;;;;;;;6048452;29;20306;-77
2023/08/10 14:25:23;;;;;;;1.95;1.85;;;;;;;;;;6049361;29;20298;-78
2023/08/10 14:28:29;;;;;;;2.30;2.10;;;;;;;;;;6048586;29;20602;-78
2023/08/10 14:31:34;;;;;;;2.17;1.90;;;;;;;;;;6049251;29;20311;-79
2023/08/10 14:34:40;;;;;;;1.98;1.85;;;;;;;;;;6062721;29;20317;-79
2023/08/10 14:37:43;;;;;;;2.08;1.90;;;;;;;;;;6072030;29;20300;-77
2023/08/10 14:40:47;;;;;;;1.73;1.63;;;;;;;;;;6072441;29;20301;-78
2023/08/10 14:43:51;;;;;;;1.70;1.60;;;;;;;;;;6071934;29;20300;-78
2023/08/10 14:46:55;;;;;;;1.70;1.60;;;;;;;;;;6071495;29;20304;-78
2023/08/10 14:50:00;;;;;;;1.77;1.67;;;;;;;;;;6071085;29;20301;-76
2023/08/10 14:53:04;;;;;;;2.58;1.80;;;;;;;;;;6070837;29;20585;-77
2023/08/10 14:56:08;;;;;;;1.40;1.40;;;;;;;;;;6071463;29;20305;-77
2023/08/10 14:59:12;;;;;;;1.70;1.60;;;;;;;;;;6070621;29;20492;-77
2023/08/10 15:02:16;;;;;;;1.80;1.75;;;;;;;;;;6071056;29;20296;-77
2023/08/10 15:05:22;;;;;;;2.95;1.70;;;;;;;;;;6061748;29;20305;-78
2023/08/10 15:08:27;;;;;;;1.77;1.70;;;;;;;;;;6047853;29;20297;-78
2023/08/10 15:11:31;;;;;;;1.70;1.60;;;;;;;;;;6048354;29;20305;-77
2023/08/10 15:14:35;;;;;;;1.80;1.70;;;;;;;;;;6047918;29;20309;-78
2023/08/10 15:17:39;;;;;;;1.60;1.60;;;;;;;;;;6046456;29;20324;-78
2023/08/10 15:20:44;;;;;;;1.85;1.75;;;;;;;;;;6047027;29;20302;-78
2023/08/10 15:23:48;;;;;;;3.05;1.90;;;;;;;;;;6046366;29;20301;-79
2023/08/10 15:26:52;;;;;;;2.97;1.70;;;;;;;;;;6046596;29;20605;-78
2023/08/10 15:29:56;;;;;;;2.63;1.75;;;;;;;;;;6045753;29;20475;-78
2023/08/10 15:32:59;;;;;;;2.83;1.63;;;;;;;;;;6044996;29;20298;-79
2023/08/10 15:36:06;;;;;;;1.77;1.67;;;;;;;;;;6037861;29;20299;-79
2023/08/10 15:39:09;;;;;;;1.60;1.50;;;;;;;;;;6023329;29;20322;-78
2023/08/10 15:42:14;;;;;;;3.92;1.92;;;;;;;;;;6023671;29;20306;-80
2023/08/10 15:45:19;;;;;;;2.17;1.70;;;;;;;;;;6022702;29;20302;-77
2023/08/10 15:48:23;;;;;;;2.88;1.70;;;;;;;;;;6022988;29;20302;-78
2023/08/10 15:51:28;;;;;;;3.80;2.13;;;;;;;;;;6023705;29;20310;-78
2023/08/10 15:54:32;;;;;;;3.15;2.20;;;;;;;;;;6021990;29;20307;-78
2023/08/10 15:57:36;;;;;;;4.22;1.75;;;;;;;;;;6022290;29;20309;-77
2023/08/10 16:00:40;;;;;;;1.70;1.65;;;;;;;;;;6022810;29;20243;-77
2023/08/10 16:03:43;;;;;;;3.45;1.80;;;;;;;;;;6024842;29;20309;-78
2023/08/10 16:06:49;;;;;;;3.97;1.80;;;;;;;;;;6056070;29;20242;-78
2023/08/10 16:09:53;;;;;;;1.70;1.70;;;;;;;;;;6056733;29;20300;-78
2023/08/10 16:12:57;;;;;;;2.20;1.67;;;;;;;;;;6074660;29;20316;-78
2023/08/10 16:16:01;;;;;;;3.15;2.00;;;;;;;;;;6075294;29;20336;-78
2023/08/10 16:19:05;;;;;;;2.20;1.98;;;;;;;;;;6075906;29;20294;-78
2023/08/10 16:22:10;;;;;;;3.50;1.90;;;;;;;;;;6076096;29;20304;-78
2023/08/10 16:25:14;;;;;;;4.00;2.20;;;;;;;;;;6076011;29;20292;-77
2023/08/10 16:28:19;;;;;;;2.67;1.70;;;;;;;;;;6075553;29;20312;-77
2023/08/10 16:31:22;;;;;;;3.63;2.13;;;;;;;;;;6075903;29;20301;-78
2023/08/10 16:34:28;;;;;;;1.73;1.63;;;;;;;;;;6063309;29;20293;-78
2023/08/10 16:37:33;;;;;;;3.28;1.85;;;;;;;;;;6052679;29;20302;-78
2023/08/10 16:40:37;;;;;;;2.35;1.80;;;;;;;;;;6055465;29;20298;-78
2023/08/10 16:43:41;;;;;;;3.55;2.67;;;;;;;;;;6052516;29;20313;-78
2023/08/10 16:46:44;;;;;;;3.72;2.00;;;;;;;;;;6054311;29;20301;-78
2023/08/10 16:49:48;;;;;;;3.30;1.90;;;;;;;;;;6052318;29;20320;-78
2023/08/10 16:52:54;;;;;;;2.78;2.08;;;;;;;;;;6052164;29;20293;-77
2023/08/10 16:55:57;;;;;;;3.15;2.28;;;;;;;;;;6052629;29;20377;-77
2023/08/10 16:59:01;;;;;;;2.28;2.10;;;;;;;;;;6052318;29;20469;-78
2023/08/10 17:02:05;;;;;;;3.83;2.00;;;;;;;;;;6052483;29;20302;-78
2023/08/10 17:05:10;;;;;;;1.73;1.73;;;;;;;;;;6052132;29;20386;-77
2023/08/10 17:08:16;;;;;;;3.40;2.20;;;;;;;;;;6054253;29;20313;-78
2023/08/10 17:11:21;;;;;;;2.38;1.80;;;;;;;;;;6066786;29;20309;-79
2023/08/10 17:14:25;;;;;;;7.55;1.77;;;;;;;;;;6074814;29;20308;-78
2023/08/10 17:17:28;;;;;;;2.03;1.90;;;;;;;;;;6071788;29;20498;-77
2023/08/10 17:20:32;;;;;;;1.90;1.80;;;;;;;;;;6072302;29;20300;-77
2023/08/10 17:23:37;;;;;;;2.35;2.08;;;;;;;;;;6071794;29;20297;-77
2023/08/10 17:26:41;;;;;;;2.38;2.05;;;;;;;;;;6072003;29;20301;-79
2023/08/10 17:29:46;;;;;;;2.22;2.05;;;;;;;;;;6071929;29;20305;-79
2023/08/10 17:32:50;;;;;;;2.13;1.58;;;;;;;;;;6070371;29;20297;-78
2023/08/10 17:35:56;;;;;;;3.08;1.65;;;;;;;;;;6048569;29;20301;-78
2023/08/10 17:39:02;;;;;;;2.92;2.03;;;;;;;;;;6031376;29;20297;-77
2023/08/10 17:42:06;;;;;;;2.65;1.42;;;;;;;;;;6032166;29;20309;-79
2023/08/10 17:45:11;;;;;;;4.43;2.03;;;;;;;;;;6047811;29;20313;-77
2023/08/10 17:48:15;;;;;;;1.42;1.40;;;;;;;;;;6047932;29;20289;-77
2023/08/10 17:51:38;;;;;;;4.05;1.75;;;;;;;;;;6048193;29;20297;-75
2023/08/10 17:54:43;;;;;;;3.40;1.60;;;;;;;;;;6046941;29;20306;-77
2023/08/10 17:57:49;;;;;;;2.53;1.55;;;;;;;;;;6047390;29;20495;-77
2023/08/10 18:00:53;;;;;;;1.60;1.50;;;;;;;;;;6047771;29;20301;-80
2023/08/10 18:03:57;;;;;;;1.60;1.27;;;;;;;;;;6047704;29;20297;-79
2023/08/10 18:07:00;;;;;;;6.55;1.58;;;;;;;;;;6050075;29;20297;-77
2023/08/10 18:10:07;;;;;;;5.28;1.60;;;;;;;;;;6052353;29;20288;-77
2023/08/10 18:13:10;;;;;;;1.55;1.55;;;;;;;;;;6070090;29;20538;-76
2023/08/10 18:16:14;;;;;;;4.00;1.48;;;;;;;;;;6070411;29;20308;-78
2023/08/10 18:19:18;;;;;;;2.05;1.45;;;;;;;;;;6070181;29;20304;-77
2023/08/10 18:22:22;;;;;;;4.68;1.77;;;;;;;;;;6069780;29;20289;-76
2023/08/10 18:25:29;;;;;;;2.28;1.92;;;;;;;;;;6070284;29;20584;-82
2023/08/10 18:28:33;;;;;;;3.17;2.15;;;;;;;;;;6069712;29;20297;-77